sensor_id;sensor_type;location;lat;lon;timestamp;temperature;humidity
24632;DHT22;59977;48.782;9.190;2022-09-29T20:53:46;11.20;99.90
24632;DHT22;59977;48.782;9.190;2022-09-29T20:56:15;10.80;99.90
24632;DHT22;59977;48.782;9.190;2022-09-29T20:58:42;10.80;99.90
24632;DHT22;59977;48.782;9.190;2022-09-29T21:01:23;11.00;99.90
24632;DHT22;59977;48.782;9.190;2022-09-29T21:03:50;10.80;99.90
24632;DHT22;59977;48.782;9.190;2022-09-29T21:06:17;10.80;99.90
24632;DHT22;59977;48.782;9.190;2022-09-29T21:08:43;10.80;99.90
24632;DHT22;59977;48.782;9.190;2022-09-29T21:11:09;10.80;99.90
24632;DHT22;59977;48.782;9.190;2022-09-29T21:13:35;10.80;99.90
24632;DHT22;59977;48.782;9.190;2022-09-29T21:16:01;10.80;99.90
24632;DHT22;59977;48.782;9.190;2022-09-29T21:18:28;10.70;99.90
24632;DHT22;59977;48.782;9.190;2022-09-29T21:21:02;10.80;99.90
24632;DHT22;59977;48.782;9.190;2022-09-29T21:23:32;10.90;99.90
24632;DHT22;59977;48.782;9.190;2022-09-29T21:25:59;10.80;99.90
24632;DHT22;59977;48.782;9.190;2022-09-29T21:28:25;10.80;99.90
24632;DHT22;59977;48.782;9.190;2022-09-29T21:30:59;10.70;99.90
24632;DHT22;59977;48.782;9.190;2022-09-29T21:33:25;10.60;99.90
24632;DHT22;59977;48.782;9.190;2022-09-29T21:36:00;10.60;99.90
24632;DHT22;59977;48.782;9.190;2022-09-29T21:38:27;10.60;99.90
24632;DHT22;59977;48.782;9.190;2022-09-29T21:43:28;10.50;99.90
24632;DHT22;59977;48.782;9.190;2022-09-29T21:46:02;10.50;99.90
24632;DHT22;59977;48.782;9.190;2022-09-29T21:48:28;10.40;99.90
24632;DHT22;59977;48.782;9.190;2022-09-29T21:51:04;10.50;99.90
24632;DHT22;59977;48.782;9.190;2022-09-29T21:53:30;10.50;99.90
24632;DHT22;59977;48.782;9.190;2022-09-29T21:56:21;10.40;99.90
24632;DHT22;59977;48.782;9.190;2022-09-29T21:58:48;10.50;99.90
24632;DHT22;59977;48.782;9.190;2022-09-29T22:01:15;10.50;99.90
24632;DHT22;59977;48.782;9.190;2022-09-29T22:03:43;10.50;99.90
24632;DHT22;59977;48.782;9.190;2022-09-29T22:06:17;10.50;99.90
24632;DHT22;59977;48.782;9.190;2022-09-29T22:08:43;10.50;99.90
24632;DHT22;59977;48.782;9.190;2022-09-29T22:11:11;10.50;99.90
24632;DHT22;59977;48.782;9.190;2022-09-29T22:13:38;10.40;99.90
24632;DHT22;59977;48.782;9.190;2022-09-29T22:16:06;10.40;99.90
24632;DHT22;59977;48.782;9.190;2022-09-29T22:18:33;10.40;99.90
24632;DHT22;59977;48.782;9.190;2022-09-29T22:21:00;10.30;99.90
24632;DHT22;59977;48.782;9.190;2022-09-29T22:23:28;10.30;99.90
24632;DHT22;59977;48.782;9.190;2022-09-29T22:25:54;10.40;99.90
24632;DHT22;59977;48.782;9.190;2022-09-29T22:28:21;10.30;99.90
24632;DHT22;59977;48.782;9.190;2022-09-29T22:30:46;10.30;99.90
24632;DHT22;59977;48.782;9.190;2022-09-29T22:33:12;10.30;99.90
24632;DHT22;59977;48.782;9.190;2022-09-29T22:35:39;10.40;99.90
24632;DHT22;59977;48.782;9.190;2022-09-29T22:38:05;10.40;99.90
24632;DHT22;59977;48.782;9.190;2022-09-29T22:40:35;10.40;99.90
24632;DHT22;59977;48.782;9.190;2022-09-29T22:43:03;10.40;99.90
24632;DHT22;59977;48.782;9.190;2022-09-29T22:45:29;10.50;99.90
